createdAt,value
2022-12-22T00:02:44.166Z,1009.1624850685267
2022-12-22T00:07:40.197Z,1009.1213956825658
2022-12-22T00:12:36.478Z,1009.004309511676
2022-12-22T00:17:33.747Z,1008.9998933712023
2022-12-22T00:22:32.961Z,1009.0075397465193
2022-12-22T00:27:30.259Z,1008.9860885692593
2022-12-22T00:32:27.510Z,1008.9825977366156
2022-12-22T00:37:23.766Z,1008.8954416136148
2022-12-22T00:42:20.032Z,1008.8677510039832
2022-12-22T00:47:22.265Z,1008.8829513797562
2022-12-22T00:52:19.562Z,1008.7773967451357
2022-12-22T00:57:16.803Z,1008.7183384725437
2022-12-22T01:02:13.255Z,1008.6950839534063
2022-12-22T01:07:10.301Z,1008.6810347035149
2022-12-22T01:12:10.542Z,1008.6249168049395
2022-12-22T01:17:07.814Z,1008.8288806776046
2022-12-22T01:22:07.013Z,1008.6974710822341
2022-12-22T01:27:03.336Z,1008.7240250506587
2022-12-22T01:32:00.572Z,1008.7975508542717
2022-12-22T01:36:56.818Z,1008.7348601043585
2022-12-22T01:41:53.061Z,1008.7227128006182
2022-12-22T01:46:50.391Z,1008.614598155013
2022-12-22T01:51:47.566Z,1008.5728414923911
2022-12-22T01:56:43.864Z,1008.4271117175596
2022-12-22T02:01:41.254Z,1008.504829784188
2022-12-22T02:06:42.352Z,1008.4773542736855
2022-12-22T02:11:49.613Z,1008.450112255732
2022-12-22T02:16:52.820Z,1008.3599455109835
2022-12-22T02:21:58.103Z,1008.283106862676
2022-12-22T02:26:58.288Z,1008.2597978911746
2022-12-22T02:31:54.543Z,1008.2856635835598
2022-12-22T02:42:09.041Z,1008.4179268863703
2022-12-22T02:47:13.279Z,1008.5512084209201
2022-12-22T02:52:15.479Z,1008.5762571649394
2022-12-22T02:57:14.793Z,1008.5908548687669
2022-12-22T03:02:13.218Z,1008.629579490437
2022-12-22T03:07:09.305Z,1008.6174205881393
2022-12-22T03:12:05.544Z,1008.5835045135741
2022-12-22T03:17:01.795Z,1008.6723740628686
2022-12-22T03:21:58.136Z,1008.7108341895814
2022-12-22T03:26:54.364Z,1008.6302571792115
2022-12-22T03:31:50.611Z,1008.6392985638823
2022-12-22T03:36:46.825Z,1008.6006393338331
2022-12-22T03:41:43.077Z,1008.5058664134499
2022-12-22T03:46:38.374Z,1008.4832452291026
2022-12-22T03:51:34.627Z,1008.4429692275944
2022-12-22T03:56:30.874Z,1008.3973651182163
2022-12-22T04:01:32.365Z,1008.4214005856934
2022-12-22T04:06:28.386Z,1008.2835431974257
2022-12-22T04:11:24.656Z,1008.4136553769342
2022-12-22T04:16:19.935Z,1008.5862864803942
2022-12-22T04:21:16.132Z,1008.4972338507662
2022-12-22T04:26:12.445Z,1008.344054138553
2022-12-22T04:31:08.696Z,1008.3712746321428
2022-12-22T04:36:04.910Z,1008.321913430575
2022-12-22T04:41:01.196Z,1008.3845027904298
2022-12-22T04:45:57.556Z,1008.4301784440796
2022-12-22T04:50:54.715Z,1008.4665317858434
2022-12-22T04:55:53.942Z,1008.3536896717534
2022-12-22T05:00:50.243Z,1008.2079842761023
2022-12-22T05:05:46.505Z,1008.1530831564215
2022-12-22T05:10:42.764Z,1008.1560834042111
2022-12-22T05:15:38.989Z,1008.1633365335547
2022-12-22T05:20:35.255Z,1008.1045991352464
2022-12-22T05:25:35.119Z,1008.2156099095565
2022-12-22T05:30:31.831Z,1008.2143655440711
2022-12-22T05:35:28.092Z,1008.2303378544474
2022-12-22T05:40:24.284Z,1008.3702994890908
2022-12-22T05:45:20.540Z,1008.2993285340074
2022-12-22T05:50:17.870Z,1008.3229795122431
2022-12-22T05:55:14.120Z,1008.4820177705145
2022-12-22T06:00:12.344Z,1008.4772563864196
2022-12-22T06:05:08.586Z,1008.4502981982937
2022-12-22T06:10:11.299Z,1008.4824006046491
2022-12-22T06:15:07.057Z,1008.4732123925288
2022-12-22T06:20:03.372Z,1008.4582922000347
2022-12-22T06:24:59.594Z,1008.5275946299536
2022-12-22T06:29:55.852Z,1008.5836617735031
2022-12-22T06:34:52.106Z,1008.6891768970443
2022-12-22T06:39:48.381Z,1008.7329758045527
2022-12-22T06:44:44.597Z,1008.8484209368169
2022-12-22T06:49:40.877Z,1008.8016816501995
2022-12-22T06:54:37.211Z,1008.7492529096464
2022-12-22T06:59:33.390Z,1008.617416867223
2022-12-22T07:04:29.647Z,1008.7008930255266
2022-12-22T07:09:25.915Z,1008.8179596032588
2022-12-22T07:14:22.192Z,1008.7830643954198
2022-12-22T07:19:18.430Z,1008.7723286625586
2022-12-22T07:24:14.670Z,1008.7954843276343
2022-12-22T07:29:11.965Z,1008.8373149589538
2022-12-22T07:34:08.198Z,1008.8233616341832
2022-12-22T07:39:05.492Z,1008.7534914430024
2022-12-22T07:44:02.747Z,1008.6679543664123
2022-12-22T07:48:59.002Z,1008.6343052458684
2022-12-22T07:53:55.256Z,1008.5966031859798
2022-12-22T07:58:51.532Z,1008.4725020754481
2022-12-22T08:03:47.776Z,1008.5410404544008
2022-12-22T08:08:44.018Z,1008.587203003314
2022-12-22T08:13:40.326Z,1008.708568810195
2022-12-22T08:18:36.545Z,1008.5622147032326
2022-12-22T08:23:31.863Z,1008.5078317368749
2022-12-22T08:28:30.075Z,1008.5660001512698
2022-12-22T08:33:26.349Z,1008.6230893196064
2022-12-22T08:38:22.617Z,1008.6868957735933
2022-12-22T08:43:19.821Z,1008.7242503719608
2022-12-22T08:48:16.083Z,1008.908389240996
2022-12-22T08:53:30.122Z,1008.9124492577674
2022-12-22T08:58:13.607Z,1008.7713412388526
2022-12-22T09:03:10.169Z,1008.7345650997543
2022-12-22T09:08:06.117Z,1008.6918889603106
2022-12-22T09:13:02.375Z,1008.4841000970872
2022-12-22T09:17:58.770Z,1008.4121832972212
2022-12-22T09:22:54.909Z,1008.2638768887072
2022-12-22T09:27:51.197Z,1008.2856051253808
2022-12-22T09:32:47.452Z,1008.2094324292784
2022-12-22T09:37:45.673Z,1008.12492608877
2022-12-22T09:42:44.958Z,1008.0095276368651
2022-12-22T09:47:44.216Z,1008.0001344871886
2022-12-22T09:52:47.416Z,1007.9932700258773
2022-12-22T09:57:44.665Z,1007.9072794888439
2022-12-22T10:02:51.986Z,1007.875512027292
2022-12-22T10:07:59.145Z,1007.8920682505194
2022-12-22T10:12:57.368Z,1007.7071133061181
2022-12-22T10:17:59.633Z,1007.6096050475759
2022-12-22T10:23:00.865Z,1007.5426648418512
2022-12-22T10:27:59.163Z,1007.565547112556
2022-12-22T10:33:03.352Z,1007.6429303153651
2022-12-22T10:38:21.718Z,1007.7959103688441
2022-12-22T10:43:18.847Z,1007.848538653118
2022-12-22T10:48:23.103Z,1007.8735145045309
2022-12-22T10:53:27.358Z,1007.8099942251971
2022-12-22T10:58:23.623Z,1007.8152401206498
2022-12-22T11:03:27.952Z,1007.7449243003184
2022-12-22T11:08:24.060Z,1007.6410783470944
2022-12-22T11:13:33.316Z,1007.6569013434574
2022-12-22T11:18:38.550Z,1007.4803556673168
2022-12-22T11:23:44.813Z,1007.4055727549542
2022-12-22T11:28:55.049Z,1007.0767606222943
2022-12-22T11:34:02.261Z,1007.235376760664
2022-12-22T11:39:08.481Z,1007.2463576447217
2022-12-22T11:44:18.689Z,1007.426317908819
2022-12-22T11:49:31.889Z,1007.3600176710472
2022-12-22T11:54:47.096Z,1007.2502967170329
2022-12-22T11:59:56.329Z,1007.0485549862688
2022-12-22T12:05:17.559Z,1007.1067167325505
2022-12-22T12:10:21.786Z,1007.1300884770624
2022-12-22T12:15:27.038Z,1007.0938707094091
2022-12-22T12:20:38.297Z,1007.0143125348451
2022-12-22T12:30:50.782Z,1006.9675411592623
2022-12-22T12:36:00.933Z,1007.1937078314102
2022-12-22T12:46:20.468Z,1006.8972850306699
2022-12-22T12:51:26.642Z,1006.7912618409999
2022-12-22T12:56:28.864Z,1006.9147389736833
2022-12-22T13:01:35.271Z,1006.8480873718939
2022-12-22T13:06:45.132Z,1006.7128835567378
2022-12-22T13:12:12.298Z,1006.5445871912001
2022-12-22T13:17:05.863Z,1006.573306547114
2022-12-22T13:22:07.111Z,1006.657073768169
2022-12-22T13:27:06.272Z,1006.7174482707596
2022-12-22T13:32:09.512Z,1006.7903322716477
2022-12-22T13:37:10.801Z,1006.8649258555915
2022-12-22T13:42:07.091Z,1006.9651504588498
2022-12-22T13:47:05.325Z,1007.0507940072937
2022-12-22T13:52:05.409Z,1006.9759166838234
2022-12-22T13:57:12.822Z,1006.6996595009432
2022-12-22T14:02:15.108Z,1006.579341283975
2022-12-22T14:07:12.298Z,1006.5089402451486
2022-12-22T14:12:12.494Z,1006.5679673504924
2022-12-22T14:17:17.761Z,1006.529687096314
2022-12-22T14:22:17.038Z,1006.4058239548305
2022-12-22T14:27:17.313Z,1006.3703683191425
2022-12-22T14:32:33.455Z,1006.4477973716066
2022-12-22T14:37:32.850Z,1006.4108948437444
2022-12-22T14:42:30.963Z,1006.5529172844624
2022-12-22T14:47:36.194Z,1006.5178996732155
2022-12-22T14:52:42.427Z,1006.6491377271524
2022-12-22T14:57:42.709Z,1006.5658686806454
2022-12-22T15:02:49.131Z,1006.6424151834875
2022-12-22T15:08:06.783Z,1006.5486229589791
2022-12-22T15:12:51.406Z,1006.5549129505602
2022-12-22T15:17:52.672Z,1006.6220214037745
2022-12-22T15:22:48.926Z,1006.7510852687188
2022-12-22T15:27:45.170Z,1006.7276612019361
2022-12-22T15:32:42.448Z,1006.698513262324
2022-12-22T15:37:38.725Z,1006.7712771331671
2022-12-22T15:42:34.943Z,1006.7955827083609
2022-12-22T15:47:31.184Z,1006.9071639790553
2022-12-22T15:52:29.470Z,1006.8421057485982
2022-12-22T15:57:25.748Z,1006.7242955324448
2022-12-22T16:07:26.194Z,1006.6802626409856
2022-12-22T16:12:22.473Z,1006.7422751603845
2022-12-22T16:17:19.765Z,1006.8148180529034
2022-12-22T16:22:17.983Z,1006.8282014955221
2022-12-22T16:27:14.241Z,1006.9364224713163
2022-12-22T16:32:17.617Z,1006.8284635315331
2022-12-22T16:37:14.774Z,1006.8563778412675
2022-12-22T16:42:12.057Z,1006.9188399536921
2022-12-22T16:47:16.281Z,1006.946067663825
2022-12-22T16:52:19.701Z,1007.0105803337552
2022-12-22T16:57:15.777Z,1006.9682735366201
2022-12-22T17:02:19.275Z,1006.8972850306699
2022-12-22T17:07:15.222Z,1006.9250081524962
2022-12-22T17:12:15.531Z,1006.8073252050511
2022-12-22T17:17:13.762Z,1006.7939178597927
2022-12-22T17:22:17.989Z,1006.873614493865
2022-12-22T17:27:15.260Z,1006.9300927269256
2022-12-22T17:32:12.481Z,1006.8828885667082
2022-12-22T17:37:12.743Z,1006.8581798487664
2022-12-22T17:42:14.014Z,1006.7495800139907
2022-12-22T17:47:12.376Z,1006.6136788373965
2022-12-22T17:52:14.471Z,1006.5990555345691
2022-12-22T17:57:13.771Z,1006.6245311017624
2022-12-22T18:02:15.384Z,1006.6600822210264
2022-12-22T18:07:13.275Z,1006.6294837060672
2022-12-22T18:12:13.914Z,1006.6135917339435
2022-12-22T18:17:19.729Z,1006.6753735892361
2022-12-22T18:22:16.960Z,1006.9704364423201
2022-12-22T18:27:13.245Z,1006.9113903710356
2022-12-22T18:32:09.576Z,1006.9437492055771
2022-12-22T18:37:10.787Z,1006.8151332630181
2022-12-22T18:42:14.961Z,1006.6784042344507
2022-12-22T18:47:11.322Z,1006.6753492294706
2022-12-22T18:52:12.509Z,1006.6849628897637
2022-12-22T18:57:10.759Z,1006.7538267622746
2022-12-22T19:02:12.101Z,1006.7211366929504
2022-12-22T19:07:10.284Z,1006.5692967403177
2022-12-22T19:12:08.477Z,1006.6257091234812
2022-12-22T19:17:05.782Z,1006.7744978083188
2022-12-22T19:22:02.084Z,1006.7459289317019
2022-12-22T19:26:58.261Z,1006.57031904784
2022-12-22T19:31:54.785Z,1006.6334981255937
2022-12-22T19:36:51.784Z,1006.6592465676981
2022-12-22T19:41:57.023Z,1006.6490538718833
2022-12-22T19:46:54.291Z,1006.4431670261779
2022-12-22T19:51:54.544Z,1006.4242316233982
2022-12-22T19:56:54.806Z,1006.398281185882
2022-12-22T20:01:51.178Z,1006.2688932259006
2022-12-22T20:06:47.322Z,1006.165057709593
2022-12-22T20:11:44.592Z,1006.2376645336947
2022-12-22T20:16:42.903Z,1006.1355307037825
2022-12-22T20:21:42.100Z,1006.2056439458476
2022-12-22T20:26:51.800Z,1006.0223018593518
2022-12-22T20:31:48.606Z,1006.005438354586
2022-12-22T20:36:47.981Z,1005.9611340812298
2022-12-22T20:41:48.845Z,1005.8051481769643
2022-12-22T20:46:47.304Z,1005.9384711791241
2022-12-22T20:51:45.590Z,1006.0073957300026
2022-12-22T20:56:47.829Z,1005.9493795124099
2022-12-22T21:01:44.229Z,1006.1549235930396
2022-12-22T21:06:46.475Z,1006.1017971251702
2022-12-22T21:11:42.606Z,1006.1277578680988
2022-12-22T21:16:40.995Z,1006.1172796002434
2022-12-22T21:21:37.077Z,1006.2418516265191
2022-12-22T21:26:34.344Z,1006.2845268539403
2022-12-22T21:31:30.713Z,1006.3918034393265
2022-12-22T21:36:27.924Z,1006.34658987431
2022-12-22T21:41:24.128Z,1006.340939219447
2022-12-22T21:46:20.508Z,1006.2422007960147
2022-12-22T21:51:16.611Z,1006.1593226700908
2022-12-22T21:56:16.896Z,1006.1054463890002
2022-12-22T22:01:18.194Z,1006.1582831198695
2022-12-22T22:06:14.384Z,1006.1875898719042
2022-12-22T22:11:15.714Z,1005.9821564026452
2022-12-22T22:16:11.957Z,1005.9122362937836
2022-12-22T22:21:08.137Z,1005.8904851628279
2022-12-22T22:26:04.404Z,1005.9360133510742
2022-12-22T22:31:00.800Z,1005.8792801640282
2022-12-22T22:36:03.832Z,1005.7562989851294
2022-12-22T22:40:59.183Z,1005.7492094895516
2022-12-22T22:45:54.456Z,1005.6691960395234
2022-12-22T22:50:50.760Z,1005.6496046042322
2022-12-22T22:55:45.970Z,1005.5128764111079
2022-12-22T23:00:43.245Z,1005.3858519352399
2022-12-22T23:05:39.671Z,1005.3051831621927
2022-12-22T23:10:41.297Z,1005.3309331637846
2022-12-22T23:15:37.012Z,1005.2232368219862
2022-12-22T23:20:33.259Z,1005.2393300248312
2022-12-22T23:25:31.525Z,1005.2614742131042
2022-12-22T23:30:27.762Z,1005.2703667145448
2022-12-22T23:35:24.061Z,1005.2041548809433
2022-12-22T23:40:51.509Z,1005.1342213244283
2022-12-22T23:45:21.527Z,1005.0499494962569
2022-12-22T23:50:16.807Z,1005.0276921473081
2022-12-22T23:55:13.052Z,1005.004532974743
